1986 WAYNE (1986228N19120)


On this page: IBTrACS data - Map and Plots - Positions - Intensities - Original source data

Summary

Start Aug 16
End Sep 7
Basins NI
WP
LMI 90 kt
Sources jtwc_wp
tokyo
cma
hko
td9636
In WMO? Yes
Related storms 1986228N18122
Previous storm 1986 WAYNE (WP)
Previous in basin 1986 WAYNE (WP)
Concurrent storms 1986 GEORGETTE (EP)
1986 TIP (WP)
1986 VERA (WP)
1986 CHARLEY (NA)
1986 WAYNE (WP)
1986 WAYNE (WP)
1986 HOWARD (EP)
1986 ISIS (EP)
1986 JAVIER (EP)
1986 TD0902 (WP)
1986 KAY (EP)
1986 MISSING (NA)
1986 MISSING (NA)
Next in basin 1986 TD0902 (WP)
Next storm 1986 HOWARD (EP)

top of page IBTrACS Data: File Access

top of page HURSAT Data: File Access

Image of storm

top of page Plots:

Map of storm track will not appear if FTP is down
Time series of cyclone Maximum Sustained Wind will not appear if FTP is down
Time series of cyclone Minimum Central Pressure will not appear if FTP is down

top of page Track Data:Position

jtwc_wp tokyo cma hko td9636
Date Lat Lon Lat Lon Lat Lon Lat Lon Lat Lon
1986-08-16 00:00:00 18.8 119.6
1986-08-16 06:00:00 17.5 117.5 18.0 118.0 17.6 118.0
1986-08-16 12:00:00 16.7 116.7 17.5 118.0 16.7 116.7
1986-08-16 18:00:00 16.4 115.9 17.0 117.5 16.2 115.8
1986-08-17 00:00:00 15.9 115.4 16.5 117.0 15.9 115.4
1986-08-17 06:00:00 15.4 115.8 16.0 116.5 16.2 117.6 15.4 115.6
1986-08-17 12:00:00 15.0 116.2 15.5 116.5 15.5 117.4 15.0 116.2
1986-08-17 18:00:00 14.8 116.7 15.0 117.0 15.1 117.3 14.8 116.9
1986-08-18 00:00:00 14.9 117.3 15.5 117.5 15.3 117.1 15.5 117.7 14.9 117.3
1986-08-18 06:00:00 15.8 117.1 16.0 117.5 15.9 116.9 15.8 117.0 15.4 117.1
1986-08-18 12:00:00 16.1 116.6 16.5 117.4 16.3 116.6 16.1 116.5 16.1 116.6
1986-08-18 18:00:00 16.4 115.9 16.9 116.5 16.5 116.1 16.5 116.0 16.6 116.0
1986-08-19 00:00:00 17.1 115.4 17.1 115.5 17.1 115.5 17.1 115.4 17.1 115.4
1986-08-19 06:00:00 17.8 114.8 18.0 114.6 17.7 114.9 17.9 114.7 17.7 114.8
1986-08-19 12:00:00 18.4 114.2 18.6 114.2 18.2 114.2 18.6 114.0 18.4 114.2
1986-08-19 18:00:00 19.0 113.5 19.0 113.7 19.0 113.7 19.1 113.6 19.0 113.6
1986-08-20 00:00:00 19.7 113.3 19.7 113.4 19.5 113.3 19.7 113.3 19.7 113.3
1986-08-20 06:00:00 20.4 113.6 20.5 113.7 20.5 113.7 20.4 113.5 20.4 113.6
1986-08-20 12:00:00 21.1 114.3 21.2 114.3 21.2 114.4 21.2 114.3 21.1 114.3
1986-08-20 18:00:00 21.8 115.1 21.7 115.1 21.7 115.1 21.7 115.1 21.7 115.2
1986-08-21 00:00:00 22.3 116.3 22.2 115.9 22.3 116.0 22.2 116.0 22.3 116.3
1986-08-21 06:00:00 22.8 117.3 22.7 117.0 22.7 117.1 22.7 117.1 22.8 117.3
1986-08-21 12:00:00 23.2 118.4 23.1 118.2 23.1 118.2 23.1 118.2 23.2 118.4
1986-08-21 18:00:00 23.7 119.3 23.6 119.2 23.6 119.2 23.6 119.3 23.7 119.4
1986-08-22 00:00:00 24.1 120.4 24.0 120.6 24.0 120.4 24.1 120.5 24.1 120.4
jtwc_wp tokyo cma hko td9636
1986-08-22 06:00:00 24.7 121.7 24.6 122.0 24.6 122.0 24.7 121.8 24.7 121.7
1986-08-22 12:00:00 25.0 123.0 25.1 123.2 25.0 122.9 25.1 123.1 25.0 123.0
1986-08-22 18:00:00 24.9 124.1 25.1 124.2 25.1 124.2 25.1 124.0 24.8 124.1
1986-08-23 00:00:00 24.4 124.7 24.5 124.6 24.6 124.5 24.8 124.6 24.4 124.7
1986-08-23 06:00:00 24.6 125.2 24.4 125.0 24.5 125.0 24.4 124.9 24.3 124.9
1986-08-23 12:00:00 24.2 124.6 24.3 124.7 24.3 124.4 24.2 124.6 24.2 124.6
1986-08-23 18:00:00 23.7 123.9 23.7 123.8 23.7 123.9 23.7 123.9 23.8 124.2
1986-08-24 00:00:00 23.2 123.5 23.2 123.4 23.2 123.3 23.4 123.4 23.2 123.5
1986-08-24 06:00:00 22.6 122.5 22.6 122.6 22.6 122.5 22.6 122.4 22.4 122.6
1986-08-24 12:00:00 21.7 121.4 21.6 121.6 22.3 121.8 21.9 121.4 21.7 121.4
1986-08-24 18:00:00 21.4 119.9 21.2 120.0 21.4 120.7 21.5 120.2 21.3 120.1
1986-08-25 00:00:00 21.0 118.7 21.2 118.7 21.2 119.2 21.3 118.8 21.0 118.7
1986-08-25 06:00:00 20.8 117.6 20.7 117.7 20.7 118.0 21.1 117.7 20.7 117.5
1986-08-25 12:00:00 20.4 116.5 20.0 116.8 20.0 117.2 20.4 116.7 20.4 116.5
1986-08-25 18:00:00 20.1 115.6 19.5 116.0 19.7 116.2 19.9 116.0 20.1 115.5
1986-08-26 00:00:00 19.7 114.8 19.0 115.3 19.2 115.6 19.4 115.3 19.7 114.8
1986-08-26 06:00:00 18.9 114.3 18.7 114.7 18.8 114.8 18.9 114.6 19.0 114.5
1986-08-26 12:00:00 18.3 114.6 18.5 114.0 18.6 114.6 18.4 114.4 18.3 114.6
1986-08-26 18:00:00 18.0 115.2 18.0 115.0 18.2 115.2 18.0 115.0 18.0 115.1
1986-08-27 00:00:00 18.0 116.0 18.0 116.0 18.2 116.0 18.0 116.0 18.0 116.0
1986-08-27 06:00:00 18.1 117.0 18.0 117.0 18.2 116.9 18.1 117.0 18.0 117.0
1986-08-27 12:00:00 18.2 118.1 18.2 117.9 18.3 117.7 18.3 118.1 18.2 118.1
1986-08-27 18:00:00 18.9 119.3 18.4 118.9 18.7 118.7 18.7 119.2 18.9 119.3
1986-08-28 00:00:00 19.7 120.2 19.0 119.7 19.2 120.0 19.2 120.0 19.7 120.2
jtwc_wp tokyo cma hko td9636
1986-08-28 06:00:00 20.1 120.6 19.4 120.1 19.9 120.6 19.8 120.5 20.1 120.7
1986-08-28 12:00:00 20.3 120.9 19.7 120.5 20.4 120.9 20.2 120.8 20.3 120.9
1986-08-28 18:00:00 20.5 121.0 20.2 120.8 20.6 121.1 20.4 121.0 20.5 121.0
1986-08-29 00:00:00 20.6 121.1 20.5 121.1 20.7 121.3 20.5 121.1 20.6 121.1
1986-08-29 06:00:00 20.7 121.2 20.7 121.2 20.7 121.3 20.6 121.2 20.7 121.2
1986-08-29 12:00:00 20.8 121.3 20.8 121.3 20.9 121.4 20.8 121.4 20.8 121.3
1986-08-29 18:00:00 21.1 121.4 21.0 121.4 21.1 121.5 21.1 121.6 21.1 121.5
1986-08-30 00:00:00 21.5 121.8 21.2 121.7 21.4 121.7 21.4 121.8 21.5 121.8
1986-08-30 06:00:00 21.7 122.1 21.7 122.2 21.8 122.0 21.6 122.1 21.8 122.1
1986-08-30 12:00:00 21.9 122.4 21.7 122.4 21.9 122.4 21.8 122.4 21.9 122.4
1986-08-30 18:00:00 21.9 122.6 21.7 122.7 22.0 122.6 21.9 122.6 22.0 122.6
1986-08-31 00:00:00 21.9 122.8 21.8 122.9 21.9 122.9 21.9 122.8 21.9 122.8
1986-08-31 06:00:00 21.8 123.1 21.8 123.1 21.8 123.0 21.8 123.0 21.8 123.0
1986-08-31 12:00:00 21.6 123.2 21.6 123.2 21.5 123.2 21.6 123.2 21.6 123.2
1986-08-31 18:00:00 21.4 123.2 21.4 123.3 21.5 123.2 21.4 123.2 21.4 123.2
1986-09-01 00:00:00 21.1 123.1 21.3 123.2 21.1 123.0 21.1 123.1 21.1 123.1
1986-09-01 06:00:00 20.8 122.7 20.9 122.7 20.7 122.7 20.9 122.9 20.7 122.8
1986-09-01 12:00:00 20.3 122.5 20.4 122.4 20.3 122.3 20.4 122.5 20.3 122.5
1986-09-01 18:00:00 19.9 122.2 20.0 122.2 20.0 122.1 20.0 122.2 19.9 122.2
1986-09-02 00:00:00 19.5 121.9 19.6 122.1 19.7 121.9 19.7 122.0 19.5 121.9
1986-09-02 06:00:00 19.2 121.7 19.2 121.9 19.3 121.7 19.4 121.8 19.2 121.7
1986-09-02 12:00:00 19.1 121.3 19.0 121.4 19.0 121.4 19.2 121.4 19.1 121.3
1986-09-02 18:00:00 19.3 120.7 18.9 120.7 18.9 120.7 18.9 120.8 19.1 120.7
1986-09-03 00:00:00 19.0 120.0 18.8 120.1 18.8 120.1 18.8 120.2 19.0 120.0
jtwc_wp tokyo cma hko td9636
1986-09-03 06:00:00 18.5 119.3 18.5 119.4 18.5 119.3 18.5 119.3 18.7 119.3
1986-09-03 12:00:00 18.4 118.5 18.3 118.5 18.3 118.3 18.4 118.3 18.4 118.5
1986-09-03 18:00:00 18.4 117.7 18.6 117.6 18.3 117.5 18.5 117.5 18.6 117.8
1986-09-04 00:00:00 18.9 116.8 18.9 116.8 18.7 116.8 18.8 116.7 18.9 116.8
1986-09-04 06:00:00 19.4 115.4 19.4 115.3 19.3 115.3 19.4 115.3 19.3 115.3
1986-09-04 12:00:00 19.6 113.7 19.6 113.6 19.5 113.8 19.7 113.7 19.6 113.7
1986-09-04 18:00:00 19.6 112.4 19.6 112.4 19.7 112.6 19.9 112.4 19.8 112.4
1986-09-05 00:00:00 19.9 111.2 19.9 111.4 20.1 111.3 20.1 111.2 19.9 111.2
1986-09-05 06:00:00 20.3 109.8 20.3 109.3 20.2 109.8 20.3 109.8 20.3 109.9
1986-09-05 12:00:00 20.6 108.4 20.4 108.4 20.4 108.3 20.5 108.3 20.6 108.4
1986-09-05 18:00:00 20.3 106.7 20.7 106.8 20.6 107.0 20.4 106.6 20.4 106.7
1986-09-06 00:00:00 19.8 104.9 20.2 105.0 20.3 105.0 20.2 105.0 19.8 104.9
1986-09-06 06:00:00 19.7 103.2 20.0 103.4 20.0 103.4 20.0 103.4
1986-09-06 12:00:00 19.7 101.4 19.7 101.4
1986-09-06 18:00:00 19.0 100.0
1986-09-07 00:00:00 19.0 99.0

top of pageTrack Data:Intensity

jtwc_wp tokyo cma hko td9636
Date Wind Pres Wind Pres Wind Pres Wind Pres Wind Pres
1986-08-16 00:00:00
1986-08-16 06:00:00 15. 1000.
1986-08-16 12:00:00 20. 996. 20.
1986-08-16 18:00:00 20. 996. 20.
1986-08-17 00:00:00 25. 996. 25.
1986-08-17 06:00:00 25. 996. 39. 995. 25.
1986-08-17 12:00:00 25. 994. 39. 995. 25.
1986-08-17 18:00:00 30. 994. 39. 995. 25.
1986-08-18 00:00:00 30. 994. 39. 995. 25. 997. 30.
1986-08-18 06:00:00 35. 40. 990. 39. 992. 30. 995. 30.
1986-08-18 12:00:00 45. 45. 990. 39. 990. 35. 990. 45.
1986-08-18 18:00:00 55. 45. 985. 39. 990. 45. 985. 45.
1986-08-19 00:00:00 60. 50. 980. 49. 985. 60. 980. 60.
1986-08-19 06:00:00 65. 55. 975. 58. 980. 65. 970. 60.
1986-08-19 12:00:00 65. 60. 975. 68. 975. 65. 970. 65.
1986-08-19 18:00:00 70. 60. 975. 68. 975. 65. 970. 65.
1986-08-20 00:00:00 70. 65. 970. 68. 975. 65. 970. 70.
1986-08-20 06:00:00 70. 65. 970. 68. 975. 60. 980. 70.
1986-08-20 12:00:00 65. 65. 965. 78. 970. 60. 980. 65.
1986-08-20 18:00:00 65. 55. 965. 78. 970. 55. 980. 65.
1986-08-21 00:00:00 70. 65. 960. 78. 970. 65. 965. 70.
1986-08-21 06:00:00 75. 70. 955. 78. 965. 75. 960. 70.
1986-08-21 12:00:00 85. 75. 955. 78. 965. 75. 960. 85.
1986-08-21 18:00:00 80. 75. 955. 78. 965. 70. 970. 85.
1986-08-22 00:00:00 70. 65. 960. 68. 965. 70. 970. 70.
jtwc_wp tokyo cma hko td9636
1986-08-22 06:00:00 50. 60. 975. 58. 975. 65. 975. 70.
1986-08-22 12:00:00 50. 55. 980. 58. 980. 65. 975. 50.
1986-08-22 18:00:00 50. 60. 985. 58. 980. 55. 980. 50.
1986-08-23 00:00:00 55. 50. 990. 49. 985. 45. 985. 55.
1986-08-23 06:00:00 55. 45. 990. 49. 985. 45. 990. 55.
1986-08-23 12:00:00 55. 45. 985. 49. 985. 40. 990. 55.
1986-08-23 18:00:00 60. 50. 985. 49. 985. 40. 985. 55.
1986-08-24 00:00:00 65. 55. 985. 49. 985. 40. 985. 65.
1986-08-24 06:00:00 55. 55. 985. 49. 985. 40. 990. 65.
1986-08-24 12:00:00 45. 50. 990. 49. 985. 40. 990. 45.
1986-08-24 18:00:00 35. 45. 990. 39. 990. 40. 990. 45.
1986-08-25 00:00:00 30. 40. 992. 39. 992. 40. 992. 30.
1986-08-25 06:00:00 30. 40. 992. 39. 992. 40. 995. 30.
1986-08-25 12:00:00 25. 40. 992. 39. 992. 35. 995. 25.
1986-08-25 18:00:00 25. 40. 994. 39. 992. 35. 995. 25.
1986-08-26 00:00:00 25. 996. 39. 992. 35. 995. 25.
1986-08-26 06:00:00 25. 996. 39. 992. 30. 995. 25.
1986-08-26 12:00:00 25. 996. 29. 995. 30. 995. 25.
1986-08-26 18:00:00 25. 996. 29. 995. 30. 995. 25.
1986-08-27 00:00:00 30. 994. 29. 995. 30. 995. 30.
1986-08-27 06:00:00 30. 994. 29. 995. 30. 995. 30.
1986-08-27 12:00:00 35. 40. 994. 29. 995. 30. 995. 35.
1986-08-27 18:00:00 35. 40. 994. 29. 995. 30. 995. 35.
1986-08-28 00:00:00 35. 40. 994. 39. 992. 30. 995. 35.
jtwc_wp tokyo cma hko td9636
1986-08-28 06:00:00 35. 40. 992. 39. 992. 30. 995. 35.
1986-08-28 12:00:00 40. 40. 992. 39. 992. 30. 995. 40.
1986-08-28 18:00:00 40. 40. 992. 39. 992. 30. 995. 40.
1986-08-29 00:00:00 40. 40. 992. 39. 992. 40. 993. 40.
1986-08-29 06:00:00 40. 45. 992. 49. 990. 45. 991. 40.
1986-08-29 12:00:00 45. 45. 990. 49. 990. 50. 990. 45.
1986-08-29 18:00:00 50. 45. 990. 49. 990. 55. 987. 45.
1986-08-30 00:00:00 55. 50. 985. 49. 990. 55. 984. 55.
1986-08-30 06:00:00 60. 50. 980. 58. 985. 55. 980. 55.
1986-08-30 12:00:00 65. 55. 975. 58. 975. 60. 975. 65.
1986-08-30 18:00:00 70. 60. 960. 68. 965. 60. 965. 65.
1986-08-31 00:00:00 70. 65. 955. 78. 955. 65. 955. 70.
1986-08-31 06:00:00 75. 70. 960. 78. 960. 65. 960. 70.
1986-08-31 12:00:00 75. 65. 965. 78. 965. 65. 965. 75.
1986-08-31 18:00:00 70. 65. 970. 68. 970. 65. 970. 75.
1986-09-01 00:00:00 70. 65. 975. 68. 970. 65. 975. 70.
1986-09-01 06:00:00 75. 65. 970. 68. 970. 70. 970. 70.
1986-09-01 12:00:00 85. 65. 965. 68. 970. 70. 965. 85.
1986-09-01 18:00:00 85. 70. 965. 68. 970. 70. 965. 85.
1986-09-02 00:00:00 85. 70. 960. 78. 965. 75. 960. 85.
1986-09-02 06:00:00 85. 70. 960. 78. 965. 75. 960. 85.
1986-09-02 12:00:00 80. 70. 965. 78. 965. 75. 965. 80.
1986-09-02 18:00:00 75. 70. 970. 68. 970. 70. 970. 80.
1986-09-03 00:00:00 70. 65. 970. 68. 972. 70. 970. 70.
jtwc_wp tokyo cma hko td9636
1986-09-03 06:00:00 70. 60. 970. 68. 972. 65. 970. 70.
1986-09-03 12:00:00 75. 60. 970. 68. 972. 65. 970. 75.
1986-09-03 18:00:00 85. 65. 960. 68. 965. 70. 965. 75.
1986-09-04 00:00:00 90. 75. 955. 87. 950. 75. 955. 90.
1986-09-04 06:00:00 85. 75. 955. 78. 955. 80. 950. 90.
1986-09-04 12:00:00 80. 75. 960. 78. 955. 80. 950. 80.
1986-09-04 18:00:00 75. 70. 960. 78. 960. 80. 955. 80.
1986-09-05 00:00:00 70. 65. 960. 78. 960. 75. 960. 70.
1986-09-05 06:00:00 70. 65. 965. 78. 960. 75. 965. 70.
1986-09-05 12:00:00 65. 65. 965. 78. 970. 75. 970. 65.
1986-09-05 18:00:00 60. 65. 965. 68. 970. 70. 970. 65.
1986-09-06 00:00:00 45. 60. 975. 23. 995. 65. 980. 45.
1986-09-06 06:00:00 30. 45. 985. 23. 1000. 40. 990.
1986-09-06 12:00:00 996. 19. 1000.
1986-09-06 18:00:00 1002.
1986-09-07 00:00:00 1002.

top of page Links to source data

Source Source file Format
jtwc_wp bwp131986.txt ATCF
tokyo bst_all.txt:Line=35010:WAYNE:8614 JMA text table
cma CH1986BST.txt:Storm=18:Wayne CMA text table
hko tc-besttrack-data-current.txt:Line=17989:WAYNE HKO Text table
td9636 cons_worldwide_trop_cyclone_18710101-19891231-003:Line=30293 TD 9636